Hlavní strana
METAR-TAF:

METAR-TAF

Letiště :

Džíbútí, Džibutsko

zeměpisná šířka: 11-33N, zeměpisná délka: 043-10E, výška: 49 m

Aktuální stav počasí

Zpráva byla vytvořena před 22 hodinami a 59 minutami, v 14:00 UTC
Východní vítr 9 kt
Teplota 29°C
Vlhkost vzduchu 62%
Tlak 1015 hPa
Viditelnost 10 km a více
Žádná oblačnost pod 1500 m, nevyskytují se cumulonimby.

METAR: HDAM 111400Z 10009KT CAVOK 29/21 Q1015

Čas: 15:59 (12:59 UTC)

Předpověď počasí

Zpráva byla vytvořena před 19 hodinami a 59 minutami, v 17:00 UTC
Předpověď platná od 11 v 18 UTC do 12 v 18 UTC
vítr z různých směrů 3 kt
Polojasno ve výšce 2000 ft
Polojasno ve výšce 3000 ft
Změna
od 12 v 00 UTC do 12 v 06 UTC
Východojihovýchodní vítr 10 kt
Polojasno ve výšce 2000 ft
Polojasno ve výšce 3000 ft
Změna
od 12 v 06 UTC do 12 v 12 UTC
Východní vítr 10 kt
Skoro jasno ve výšce 2000 ft
Polojasno ve výšce 3000 ft

TAF: HDAM 111700Z 1118/1218 VRB03KT SCT020 SCT030 BECMG 1200/1206 12010KT SCT020 SCT030 BECMG 1206/1212 10010KT FEW020 SCT030

Stav a předpovědi počasí z více než 4 000 letišť (zprávy METAR a TAF).

Červené a žluté tečky na mapě představují dostupné meteorologické stanice.

Když kurzor umístíte na tečku, zobrazí se název stanice.

Pak kliknutím zobrazíte stav a předpověď počasí.

Chcete-li změnit mapu, kliknutím na zelené tlačítko se znaménkem +mapu přiblížíte, kliknutím na zelené tlačítko se znaménkem – mapu oddálíte a kliknutím na zelené šipky přejdete na sousední mapy.


METAR-TAF: